createdAt,value
2023-03-15T00:01:46.753Z,23.42
2023-03-15T00:04:14.526Z,24.10
2023-03-15T00:06:41.213Z,23.65
2023-03-15T00:09:08.139Z,23.25
2023-03-15T00:11:34.759Z,23.15
2023-03-15T00:14:02.518Z,23.60
2023-03-15T00:16:29.574Z,24.30
2023-03-15T00:18:56.648Z,24.85
2023-03-15T00:21:24.009Z,23.55
2023-03-15T00:23:51.090Z,24.08
2023-03-15T00:26:18.110Z,23.95
2023-03-15T00:28:44.897Z,24.13
2023-03-15T00:31:23.711Z,23.92
2023-03-15T00:33:53.757Z,24.40
2023-03-15T00:36:24.480Z,25.75
2023-03-15T00:38:53.436Z,24.10
2023-03-15T00:41:21.370Z,23.63
2023-03-15T00:43:48.021Z,24.85
2023-03-15T00:46:15.783Z,23.95
2023-03-15T00:48:42.852Z,24.80
2023-03-15T00:51:14.883Z,23.77
2023-03-15T00:53:43.902Z,25.00
2023-03-15T00:56:13.682Z,25.20
2023-03-15T00:58:41.000Z,23.13
2023-03-15T01:01:13.598Z,22.80
2023-03-15T01:03:41.904Z,22.55
2023-03-15T01:06:14.549Z,22.38
2023-03-15T01:08:41.439Z,22.00
2023-03-15T01:11:17.291Z,21.60
2023-03-15T01:13:44.430Z,21.45
2023-03-15T01:16:12.916Z,21.27
2023-03-15T01:18:41.296Z,21.63
2023-03-15T01:21:12.564Z,22.20
2023-03-15T01:23:40.246Z,21.52
2023-03-15T01:26:11.348Z,22.48
2023-03-15T01:28:37.961Z,22.10
2023-03-15T01:31:04.917Z,21.77
2023-03-15T01:33:31.849Z,21.90
2023-03-15T01:36:03.534Z,22.55
2023-03-15T01:38:30.541Z,22.23
2023-03-15T01:40:57.136Z,21.95
2023-03-15T01:43:25.676Z,22.13
2023-03-15T01:46:06.544Z,22.98
2023-03-15T01:48:46.662Z,23.08
2023-03-15T01:51:39.004Z,22.10
2023-03-15T01:54:20.805Z,22.60
2023-03-15T01:56:59.155Z,22.10
2023-03-15T01:59:36.837Z,22.77
2023-03-15T02:02:05.127Z,21.63
2023-03-15T02:04:41.692Z,22.20
2023-03-15T02:07:09.654Z,22.08
2023-03-15T02:09:47.765Z,21.55
2023-03-15T02:12:14.334Z,22.00
2023-03-15T02:14:41.884Z,21.77
2023-03-15T02:17:08.476Z,22.50
2023-03-15T02:20:20.077Z,21.95
2023-03-15T02:22:53.653Z,21.33
2023-03-15T02:25:26.509Z,21.75
2023-03-15T02:27:54.059Z,21.17
2023-03-15T02:30:20.966Z,22.27
2023-03-15T02:32:49.334Z,22.23
2023-03-15T02:35:28.532Z,22.15
2023-03-15T02:37:55.304Z,23.15
2023-03-15T02:40:23.852Z,22.40
2023-03-15T02:42:57.687Z,22.23
2023-03-15T02:45:26.435Z,22.43
2023-03-15T02:47:53.610Z,21.77
2023-03-15T02:50:20.211Z,22.00
2023-03-15T02:52:46.894Z,22.00
2023-03-15T02:55:13.491Z,22.00
2023-03-15T02:57:40.074Z,21.67
2023-03-15T03:00:14.322Z,21.27
2023-03-15T03:02:42.347Z,21.17
2023-03-15T03:05:09.627Z,21.45
2023-03-15T03:07:36.626Z,21.40
2023-03-15T03:10:07.868Z,21.30
2023-03-15T03:12:34.455Z,21.38
2023-03-15T03:15:02.684Z,21.05
2023-03-15T03:17:29.257Z,21.23
2023-03-15T03:19:55.909Z,21.45
2023-03-15T03:22:25.840Z,20.52
2023-03-15T03:24:52.574Z,20.50
2023-03-15T03:27:19.262Z,20.77
2023-03-15T03:29:45.967Z,20.83
2023-03-15T03:32:12.746Z,20.58
2023-03-15T03:34:39.366Z,20.92
2023-03-15T03:37:06.034Z,21.15
2023-03-15T03:39:32.592Z,21.05
2023-03-15T03:41:59.186Z,20.55
2023-03-15T03:44:25.754Z,20.40
2023-03-15T03:46:52.322Z,20.88
2023-03-15T03:49:18.918Z,20.58
2023-03-15T03:51:45.480Z,20.95
2023-03-15T03:54:12.056Z,20.15
2023-03-15T03:56:39.710Z,20.13
2023-03-15T03:59:06.349Z,20.02
2023-03-15T04:01:33.676Z,20.08
2023-03-15T04:04:00.253Z,20.20
2023-03-15T04:06:26.827Z,19.80
2023-03-15T04:08:53.462Z,20.50
2023-03-15T04:11:20.233Z,20.17
2023-03-15T04:13:47.517Z,20.45
2023-03-15T04:16:14.719Z,20.40
2023-03-15T04:18:41.594Z,20.40
2023-03-15T04:21:10.802Z,20.65
2023-03-15T04:23:39.312Z,21.23
2023-03-15T04:26:06.045Z,20.50
2023-03-15T04:28:32.704Z,20.42
2023-03-15T04:30:59.442Z,20.23
2023-03-15T04:33:26.720Z,20.17
2023-03-15T04:35:53.330Z,20.33
2023-03-15T04:38:26.527Z,19.50
2023-03-15T04:40:56.878Z,19.33
2023-03-15T04:43:24.506Z,19.55
2023-03-15T04:45:51.789Z,19.38
2023-03-15T04:48:18.377Z,19.85
2023-03-15T04:50:45.024Z,20.15
2023-03-15T04:53:11.585Z,19.35
2023-03-15T04:55:38.195Z,19.67
2023-03-15T04:58:04.820Z,20.08
2023-03-15T05:00:31.558Z,19.98
2023-03-15T05:02:58.161Z,19.70
2023-03-15T05:05:24.848Z,20.20
2023-03-15T05:07:51.776Z,20.77
2023-03-15T05:10:19.497Z,20.13
2023-03-15T05:12:46.442Z,20.35
2023-03-15T05:15:13.353Z,20.17
2023-03-15T05:17:39.945Z,19.85
2023-03-15T05:20:12.678Z,20.33
2023-03-15T05:22:41.004Z,20.60
2023-03-15T05:25:08.859Z,22.20
2023-03-15T05:27:35.696Z,21.48
2023-03-15T05:30:05.846Z,21.83
2023-03-15T05:32:34.772Z,21.90
2023-03-15T05:35:02.382Z,22.48
2023-03-15T05:37:29.045Z,22.30
2023-03-15T05:39:56.120Z,22.98
2023-03-15T05:42:26.193Z,23.08
2023-03-15T05:44:56.933Z,22.80
2023-03-15T05:47:23.786Z,23.45
2023-03-15T05:49:50.653Z,23.65
2023-03-15T05:52:17.216Z,23.70
2023-03-15T05:54:44.021Z,24.67
2023-03-15T05:57:10.794Z,23.98
2023-03-15T05:59:37.402Z,24.60
2023-03-15T06:02:04.234Z,25.05
2023-03-15T06:04:30.928Z,23.70
2023-03-15T06:06:57.889Z,24.13
2023-03-15T06:09:24.604Z,24.08
2023-03-15T06:11:51.169Z,24.30
2023-03-15T06:14:17.894Z,23.80
2023-03-15T06:16:44.514Z,23.67
2023-03-15T06:19:11.118Z,24.98
2023-03-15T06:21:37.772Z,24.00
2023-03-15T06:24:04.502Z,23.42
2023-03-15T06:26:31.048Z,23.33
2023-03-15T06:28:57.662Z,23.95
2023-03-15T06:31:24.235Z,23.52
2023-03-15T06:33:50.791Z,24.05
2023-03-15T06:36:17.391Z,24.35
2023-03-15T06:38:43.978Z,24.35
2023-03-15T06:41:12.515Z,24.63
2023-03-15T06:43:39.293Z,24.15
2023-03-15T06:46:05.927Z,23.85
2023-03-15T06:48:32.526Z,25.08
2023-03-15T06:50:59.170Z,25.23
2023-03-15T06:53:25.705Z,25.63
2023-03-15T06:55:52.336Z,25.13
2023-03-15T06:58:19.153Z,25.90
2023-03-15T07:00:45.845Z,25.42
2023-03-15T07:03:12.376Z,25.38
2023-03-15T07:05:39.066Z,25.42
2023-03-15T07:08:06.010Z,25.83
2023-03-15T07:10:32.604Z,25.08
2023-03-15T07:12:59.218Z,25.65
2023-03-15T07:15:25.788Z,25.83
2023-03-15T07:17:52.340Z,26.25
2023-03-15T07:20:19.055Z,25.38
2023-03-15T07:22:45.697Z,25.52
2023-03-15T07:25:12.283Z,25.80
2023-03-15T07:27:38.819Z,25.40
2023-03-15T07:30:07.329Z,25.27
2023-03-15T07:32:34.068Z,24.67
2023-03-15T07:35:00.804Z,25.38
2023-03-15T07:37:29.311Z,25.33
2023-03-15T07:39:55.940Z,25.17
2023-03-15T07:42:22.521Z,23.50
2023-03-15T07:44:49.306Z,24.75
2023-03-15T07:47:15.880Z,24.45
2023-03-15T07:49:42.478Z,24.02
2023-03-15T07:52:09.176Z,23.73
2023-03-15T07:54:35.761Z,24.35
2023-03-15T07:57:02.400Z,23.23
2023-03-15T07:59:29.147Z,24.52
2023-03-15T08:01:55.750Z,23.60
2023-03-15T08:04:22.415Z,25.30
2023-03-15T08:06:48.946Z,24.08
2023-03-15T08:09:15.528Z,24.30
2023-03-15T08:11:43.444Z,24.45
2023-03-15T08:14:11.342Z,23.48
2023-03-15T08:16:37.965Z,23.52
2023-03-15T08:19:04.596Z,22.83
2023-03-15T08:21:33.711Z,23.42
2023-03-15T08:24:00.966Z,23.92
2023-03-15T08:26:27.862Z,23.45
2023-03-15T08:28:54.441Z,23.58
2023-03-15T08:31:21.696Z,23.02
2023-03-15T08:33:48.371Z,22.73
2023-03-15T08:36:15.029Z,23.75
2023-03-15T08:38:41.865Z,22.83
2023-03-15T08:41:08.428Z,22.85
2023-03-15T08:43:35.054Z,23.80
2023-03-15T08:46:02.219Z,23.25
2023-03-15T08:48:29.691Z,24.02
2023-03-15T08:50:57.517Z,23.27
2023-03-15T08:53:24.147Z,22.80
2023-03-15T08:55:50.707Z,23.40
2023-03-15T08:58:17.256Z,23.52
2023-03-15T09:00:43.848Z,25.88
2023-03-15T09:03:11.390Z,25.55
2023-03-15T09:05:37.967Z,25.30
2023-03-15T09:08:04.706Z,24.67
2023-03-15T09:10:31.410Z,24.50
2023-03-15T09:12:58.141Z,25.05
2023-03-15T09:15:24.765Z,24.83
2023-03-15T09:17:51.779Z,25.17
2023-03-15T09:20:21.938Z,25.25
2023-03-15T09:22:55.849Z,24.88
2023-03-15T09:25:23.513Z,25.63
2023-03-15T09:27:50.666Z,24.85
2023-03-15T09:30:17.695Z,25.65
2023-03-15T09:32:44.623Z,26.98
2023-03-15T09:35:15.212Z,24.70
2023-03-15T09:37:42.604Z,24.75
2023-03-15T09:40:45.016Z,25.48
2023-03-15T09:43:48.624Z,24.90
2023-03-15T09:46:29.951Z,25.75
2023-03-15T09:49:04.739Z,26.05
2023-03-15T09:51:48.746Z,26.58
2023-03-15T09:54:20.867Z,25.63
2023-03-15T09:57:15.024Z,26.80
2023-03-15T09:59:45.425Z,26.77
2023-03-15T10:02:31.689Z,26.27
2023-03-15T10:05:05.945Z,26.00
2023-03-15T10:07:33.054Z,25.67
2023-03-15T10:09:59.814Z,27.02
2023-03-15T10:12:40.798Z,27.27
2023-03-15T10:15:16.806Z,27.13
2023-03-15T10:18:04.112Z,27.38
2023-03-15T10:20:45.205Z,27.30
2023-03-15T10:23:19.333Z,27.00
2023-03-15T10:25:49.242Z,27.75
2023-03-15T10:28:34.781Z,27.45
2023-03-15T10:31:22.368Z,27.13
2023-03-15T10:33:57.279Z,27.27
2023-03-15T10:36:25.373Z,28.15
2023-03-15T10:38:52.440Z,27.33
2023-03-15T10:41:37.264Z,27.83
2023-03-15T10:44:28.548Z,29.00
2023-03-15T10:47:23.112Z,28.85
2023-03-15T10:49:56.708Z,28.25
2023-03-15T10:52:26.392Z,29.17
2023-03-15T10:54:58.770Z,28.73
2023-03-15T10:57:35.111Z,29.65
2023-03-15T11:00:09.781Z,29.65
2023-03-15T11:05:03.923Z,29.10
2023-03-15T11:07:35.318Z,30.40
2023-03-15T11:10:03.675Z,29.48
2023-03-15T11:12:33.341Z,29.88
2023-03-15T11:15:07.738Z,30.90
2023-03-15T11:17:42.113Z,30.20
2023-03-15T11:20:26.076Z,30.25
2023-03-15T11:22:54.123Z,29.55
2023-03-15T11:25:24.985Z,28.15
2023-03-15T11:27:53.642Z,27.80
2023-03-15T11:30:27.142Z,26.92
2023-03-15T11:32:53.953Z,26.10
2023-03-15T11:35:31.182Z,25.33
2023-03-15T11:38:14.711Z,25.30
2023-03-15T11:40:51.565Z,25.67
2023-03-15T11:43:24.625Z,24.80
2023-03-15T11:45:58.998Z,24.95
2023-03-15T11:48:28.002Z,25.65
2023-03-15T11:50:55.519Z,24.10
2023-03-15T11:53:25.227Z,24.52
2023-03-15T11:55:54.811Z,24.10
2023-03-15T11:58:34.737Z,22.50
2023-03-15T12:01:11.360Z,22.92
2023-03-15T12:03:44.388Z,22.05
2023-03-15T12:06:13.763Z,22.90
2023-03-15T12:08:43.299Z,22.73
2023-03-15T12:11:37.600Z,22.30
2023-03-15T12:14:06.751Z,21.75
2023-03-15T12:16:41.948Z,20.50
2023-03-15T12:19:16.814Z,20.85
2023-03-15T12:21:53.536Z,20.98
2023-03-15T12:24:30.869Z,21.48
2023-03-15T12:27:06.804Z,21.10
2023-03-15T12:29:36.141Z,21.42
2023-03-15T12:32:02.720Z,20.77
2023-03-15T12:34:49.712Z,19.58
2023-03-15T12:37:27.457Z,20.48
2023-03-15T12:40:14.998Z,19.42
2023-03-15T12:42:41.532Z,19.55
2023-03-15T12:45:17.397Z,21.38
2023-03-15T12:48:24.728Z,19.30
2023-03-15T12:50:55.089Z,19.90
2023-03-15T12:53:38.371Z,19.17
2023-03-15T12:56:30.014Z,19.05
2023-03-15T12:59:05.000Z,18.67
2023-03-15T13:01:33.554Z,19.63
2023-03-15T13:04:03.540Z,21.80
2023-03-15T13:06:52.390Z,20.17
2023-03-15T13:09:49.445Z,20.33
2023-03-15T13:12:49.966Z,19.67
2023-03-15T13:15:24.023Z,20.50
2023-03-15T13:17:50.569Z,20.25
2023-03-15T13:20:44.652Z,20.25
2023-03-15T13:23:29.522Z,19.85
2023-03-15T13:26:29.676Z,21.27
2023-03-15T13:29:06.305Z,19.88
2023-03-15T13:31:33.878Z,18.65
2023-03-15T13:34:22.267Z,19.52
2023-03-15T13:36:55.097Z,19.55
2023-03-15T13:39:33.354Z,20.48
2023-03-15T13:42:05.583Z,20.10
2023-03-15T13:44:33.658Z,19.45
2023-03-15T13:47:00.956Z,18.50
2023-03-15T13:49:32.912Z,18.95
2023-03-15T13:52:02.463Z,18.88
2023-03-15T13:54:34.231Z,18.92
2023-03-15T13:57:05.021Z,19.30
2023-03-15T13:59:43.050Z,19.88
2023-03-15T14:02:44.536Z,19.25
2023-03-15T14:05:18.906Z,20.08
2023-03-15T14:07:48.509Z,19.70
2023-03-15T14:10:31.257Z,19.30
2023-03-15T14:13:14.749Z,19.58
2023-03-15T14:15:44.882Z,18.88
2023-03-15T14:18:11.370Z,18.95
2023-03-15T14:20:46.112Z,19.65
2023-03-15T14:23:16.094Z,18.70
2023-03-15T14:25:43.462Z,18.55
2023-03-15T14:28:16.556Z,18.85
2023-03-15T14:30:52.463Z,19.10
2023-03-15T14:33:31.856Z,18.90
2023-03-15T14:36:03.482Z,20.02
2023-03-15T14:38:36.163Z,19.67
2023-03-15T14:41:22.939Z,19.05
2023-03-15T14:43:49.550Z,20.27
2023-03-15T14:46:16.322Z,19.70
2023-03-15T14:48:43.041Z,18.85
2023-03-15T14:51:18.291Z,19.90
2023-03-15T14:53:46.677Z,20.02
2023-03-15T14:56:14.279Z,18.90
2023-03-15T14:58:42.242Z,19.85
2023-03-15T15:01:13.531Z,19.45
2023-03-15T15:03:50.134Z,19.45
2023-03-15T15:06:16.846Z,18.83
2023-03-15T15:08:46.359Z,18.90
2023-03-15T15:11:14.177Z,19.30
2023-03-15T15:13:41.154Z,19.83
2023-03-15T15:16:08.307Z,19.02
2023-03-15T15:18:36.499Z,19.83
2023-03-15T15:21:12.048Z,19.13
2023-03-15T15:23:56.914Z,19.67
2023-03-15T15:26:27.041Z,19.02
2023-03-15T15:28:54.325Z,19.25
2023-03-15T15:31:23.238Z,19.40
2023-03-15T15:33:51.386Z,19.80
2023-03-15T15:36:32.496Z,20.33
2023-03-15T15:39:06.387Z,20.52
2023-03-15T15:41:33.910Z,19.58
2023-03-15T15:44:01.107Z,19.63
2023-03-15T15:46:28.057Z,19.48
2023-03-15T15:48:54.828Z,20.35
2023-03-15T15:51:34.533Z,19.70
2023-03-15T15:54:02.190Z,19.60
2023-03-15T15:56:44.186Z,19.80
2023-03-15T15:59:14.881Z,19.27
2023-03-15T16:01:56.578Z,19.55
2023-03-15T16:04:26.044Z,19.35
2023-03-15T16:06:56.158Z,19.92
2023-03-15T16:09:23.214Z,20.83
2023-03-15T16:11:49.842Z,19.95
2023-03-15T16:14:16.476Z,20.13
2023-03-15T16:16:43.481Z,20.58
2023-03-15T16:19:10.093Z,20.77
2023-03-15T16:21:44.132Z,20.52
2023-03-15T16:24:44.087Z,21.55
2023-03-15T16:27:23.226Z,20.58
2023-03-15T16:29:50.513Z,21.38
2023-03-15T16:32:37.220Z,21.25
2023-03-15T16:35:15.434Z,22.15
2023-03-15T16:37:43.386Z,21.58
2023-03-15T16:40:18.575Z,22.25
2023-03-15T16:42:45.105Z,21.50
2023-03-15T16:45:13.472Z,22.23
2023-03-15T16:47:40.062Z,22.45
2023-03-15T16:50:06.970Z,22.80
2023-03-15T16:52:33.611Z,21.98
2023-03-15T16:55:01.068Z,22.50
2023-03-15T16:57:27.841Z,22.00
2023-03-15T16:59:54.390Z,21.80
2023-03-15T17:02:24.142Z,22.30
2023-03-15T17:04:52.506Z,22.42
2023-03-15T17:07:25.297Z,21.48
2023-03-15T17:09:51.938Z,21.83
2023-03-15T17:12:25.715Z,22.30
2023-03-15T17:14:55.396Z,21.80
2023-03-15T17:17:22.044Z,21.80
2023-03-15T17:19:48.580Z,21.52
2023-03-15T17:22:19.235Z,21.88
2023-03-15T17:24:47.261Z,21.17
2023-03-15T17:27:26.177Z,21.08
2023-03-15T17:29:52.944Z,20.42
2023-03-15T17:32:19.681Z,20.50
2023-03-15T17:34:47.432Z,21.08
2023-03-15T17:37:15.359Z,20.58
2023-03-15T17:39:42.776Z,19.60
2023-03-15T17:42:18.758Z,20.08
2023-03-15T17:44:45.304Z,19.98
2023-03-15T17:47:12.228Z,20.23
2023-03-15T17:49:39.469Z,20.10
2023-03-15T17:52:15.245Z,20.30
2023-03-15T17:54:41.934Z,20.92
2023-03-15T17:57:12.299Z,20.65
2023-03-15T17:59:39.204Z,20.90
2023-03-15T18:02:13.988Z,20.85
2023-03-15T18:04:40.633Z,20.83
2023-03-15T18:07:07.715Z,20.77
2023-03-15T18:09:34.456Z,20.95
2023-03-15T18:12:02.219Z,20.73
2023-03-15T18:14:30.917Z,20.02
2023-03-15T18:16:57.703Z,20.70
2023-03-15T18:19:25.010Z,20.90
2023-03-15T18:21:51.588Z,20.83
2023-03-15T18:24:19.139Z,21.27
2023-03-15T18:26:45.703Z,20.63
2023-03-15T18:29:12.267Z,20.58
2023-03-15T18:31:38.984Z,21.45
2023-03-15T18:34:06.698Z,20.92
2023-03-15T18:36:33.315Z,20.35
2023-03-15T18:38:59.961Z,20.55
2023-03-15T18:41:26.728Z,20.52
2023-03-15T18:43:53.319Z,20.05
2023-03-15T18:46:25.085Z,21.48
2023-03-15T18:48:56.068Z,20.55
2023-03-15T18:51:28.286Z,21.33
2023-03-15T18:53:56.030Z,20.38
2023-03-15T18:56:25.662Z,20.70
2023-03-15T18:58:54.168Z,20.77
2023-03-15T19:01:25.100Z,21.17
2023-03-15T19:03:53.052Z,21.17
2023-03-15T19:06:20.874Z,20.60
2023-03-15T19:08:53.176Z,21.38
2023-03-15T19:11:21.520Z,20.52
2023-03-15T19:13:51.098Z,20.52
2023-03-15T19:16:21.742Z,20.40
2023-03-15T19:18:49.620Z,20.42
2023-03-15T19:21:18.646Z,20.40
2023-03-15T19:23:45.971Z,20.33
2023-03-15T19:26:13.834Z,20.15
2023-03-15T19:28:40.904Z,20.35
2023-03-15T19:31:07.486Z,20.65
2023-03-15T19:33:34.856Z,19.92
2023-03-15T19:36:02.158Z,20.40
2023-03-15T19:38:29.436Z,20.63
2023-03-15T19:40:58.570Z,20.67
2023-03-15T19:43:26.311Z,20.15
2023-03-15T19:45:52.856Z,20.33
2023-03-15T19:48:19.435Z,20.05
2023-03-15T19:50:47.386Z,19.85
2023-03-15T19:53:13.950Z,19.80
2023-03-15T19:55:41.457Z,20.08
2023-03-15T19:58:08.098Z,20.48
2023-03-15T20:00:34.632Z,20.98
2023-03-15T20:03:01.275Z,19.58
2023-03-15T20:05:27.964Z,20.17
2023-03-15T20:07:54.621Z,19.77
2023-03-15T20:10:21.893Z,19.75
2023-03-15T20:12:48.924Z,20.33
2023-03-15T20:15:19.158Z,20.85
2023-03-15T20:17:46.079Z,19.90
2023-03-15T20:20:13.854Z,19.75
2023-03-15T20:22:42.884Z,19.77
2023-03-15T20:25:11.685Z,19.85
2023-03-15T20:27:38.724Z,19.75
2023-03-15T20:30:08.323Z,20.25
2023-03-15T20:32:34.921Z,19.67
2023-03-15T20:35:02.339Z,19.75
2023-03-15T20:37:30.441Z,20.33
2023-03-15T20:39:57.042Z,20.52
2023-03-15T20:42:24.988Z,19.92
2023-03-15T20:44:51.714Z,19.73
2023-03-15T20:47:18.923Z,19.98
2023-03-15T20:49:45.487Z,20.13
2023-03-15T20:52:12.171Z,19.67
2023-03-15T20:54:38.693Z,19.90
2023-03-15T20:57:05.477Z,20.10
2023-03-15T20:59:32.114Z,20.17
2023-03-15T21:01:58.785Z,19.92
2023-03-15T21:04:26.165Z,20.48
2023-03-15T21:06:52.859Z,20.13
2023-03-15T21:09:19.742Z,19.95
2023-03-15T21:11:46.377Z,19.88
2023-03-15T21:14:12.958Z,19.50
2023-03-15T21:16:39.804Z,20.25
2023-03-15T21:19:06.493Z,20.42
2023-03-15T21:21:33.044Z,20.08
2023-03-15T21:23:59.560Z,19.90
2023-03-15T21:26:26.107Z,20.05
2023-03-15T21:28:52.666Z,20.25
2023-03-15T21:31:19.625Z,20.27
2023-03-15T21:33:46.256Z,21.23
2023-03-15T21:36:12.877Z,19.67
2023-03-15T21:38:39.486Z,19.55
2023-03-15T21:41:09.274Z,19.83
2023-03-15T21:43:36.703Z,19.73
2023-03-15T21:46:07.379Z,19.80
2023-03-15T21:48:34.980Z,19.90
2023-03-15T21:51:02.155Z,19.90
2023-03-15T21:53:30.209Z,20.10
2023-03-15T21:56:00.938Z,19.80
2023-03-15T21:58:28.250Z,19.08
2023-03-15T22:01:04.587Z,19.33
2023-03-15T22:03:32.740Z,20.20
2023-03-15T22:05:59.441Z,19.63
2023-03-15T22:08:26.298Z,20.15
2023-03-15T22:10:54.244Z,19.75
2023-03-15T22:13:21.721Z,19.55
2023-03-15T22:15:48.296Z,19.30
2023-03-15T22:18:14.989Z,18.95
2023-03-15T22:20:41.548Z,20.27
2023-03-15T22:23:08.436Z,19.83
2023-03-15T22:25:34.964Z,20.25
2023-03-15T22:28:02.049Z,19.17
2023-03-15T22:30:28.729Z,19.48
2023-03-15T22:32:55.410Z,19.17
2023-03-15T22:35:22.736Z,19.50
2023-03-15T22:37:49.510Z,19.48
2023-03-15T22:40:16.312Z,19.77
2023-03-15T22:42:43.220Z,19.77
2023-03-15T22:45:10.448Z,19.58
2023-03-15T22:47:37.011Z,19.33
2023-03-15T22:50:03.943Z,20.30
2023-03-15T22:52:30.505Z,19.58
2023-03-15T22:54:57.114Z,19.98
2023-03-15T22:57:23.916Z,20.65
2023-03-15T22:59:50.472Z,20.00
2023-03-15T23:02:17.046Z,19.67
2023-03-15T23:04:45.296Z,19.35
2023-03-15T23:07:12.416Z,19.23
2023-03-15T23:09:39.013Z,19.77
2023-03-15T23:12:05.903Z,19.80
2023-03-15T23:14:32.477Z,19.48
2023-03-15T23:16:59.258Z,19.70
2023-03-15T23:19:25.819Z,19.10
2023-03-15T23:21:52.401Z,19.40
2023-03-15T23:24:19.765Z,19.30
2023-03-15T23:26:46.423Z,19.33
2023-03-15T23:29:13.424Z,19.38
2023-03-15T23:31:41.462Z,19.75
2023-03-15T23:34:08.821Z,20.20
2023-03-15T23:36:35.642Z,19.60
2023-03-15T23:39:02.376Z,19.30
2023-03-15T23:41:29.208Z,19.45
2023-03-15T23:43:55.760Z,19.13
2023-03-15T23:46:24.344Z,19.13
2023-03-15T23:48:52.427Z,19.10
2023-03-15T23:51:20.160Z,18.98
2023-03-15T23:53:46.799Z,20.40
2023-03-15T23:56:13.454Z,20.30
2023-03-15T23:58:40.073Z,19.05
